Time;durP1;ratioP1;P1;durP2;ratioP2;P2;SDS_P1;SDS_P2;PMS_P1;PMS_P2;Temp;Humidity;BMP_temperature;BMP_pressure;BME280_temperature;BME280_humidity;BME280_pressure;Samples;Min_cycle;Max_cycle;Signal;HPM_P1;HPM_P2
2022/04/30 00:02:14;;;;;;;15.90;13.83;;;15.70;99.90;;;;;;5069095;28;20452;-63
2022/04/30 00:04:42;;;;;;;16.57;13.60;;;15.60;99.90;;;;;;5069368;28;20471;-64
2022/04/30 00:07:13;;;;;;;20.33;13.30;;;15.70;99.90;;;;;;5068858;28;20452;-64
2022/04/30 00:09:41;;;;;;;16.63;12.93;;;15.60;99.90;;;;;;5069508;28;20457;-64
2022/04/30 00:12:10;;;;;;;17.17;13.47;;;15.60;99.90;;;;;;5069441;28;20473;-64
2022/04/30 00:14:38;;;;;;;18.70;12.90;;;15.60;99.90;;;;;;5069027;28;20894;-64
2022/04/30 00:17:05;;;;;;;14.83;12.80;;;15.80;99.90;;;;;;5069315;28;20485;-64
2022/04/30 00:19:33;;;;;;;15.07;13.33;;;15.90;99.90;;;;;;5068981;28;20488;-64
2022/04/30 00:22:00;;;;;;;15.67;12.57;;;15.70;99.90;;;;;;5069393;28;20441;-64
2022/04/30 00:24:28;;;;;;;15.90;13.27;;;15.40;99.90;;;;;;5069316;28;20460;-64
2022/04/30 00:26:57;;;;;;;16.53;13.00;;;15.10;99.90;;;;;;5068904;28;20453;-64
2022/04/30 00:29:24;;;;;;;16.90;12.77;;;15.10;99.90;;;;;;5072067;28;20473;-64
2022/04/30 00:31:51;;;;;;;14.83;12.57;;;15.30;99.90;;;;;;5072892;28;20848;-64
2022/04/30 00:34:19;;;;;;;15.33;12.23;;;15.20;99.90;;;;;;5072910;28;20519;-64
2022/04/30 00:36:46;;;;;;;14.43;11.90;;;15.20;99.90;;;;;;5073021;28;20956;-63
2022/04/30 00:39:13;;;;;;;14.23;12.47;;;15.20;99.90;;;;;;5072754;28;20895;-64
2022/04/30 00:41:44;;;;;;;13.97;11.53;;;15.10;99.90;;;;;;5072503;28;20509;-63
2022/04/30 00:44:12;;;;;;;14.53;12.07;;;15.10;99.90;;;;;;5072496;28;20475;-63
2022/04/30 00:46:39;;;;;;;13.53;11.50;;;15.10;99.90;;;;;;5072704;28;20537;-63
2022/04/30 00:49:07;;;;;;;15.03;12.83;;;15.20;99.90;;;;;;5072415;28;20968;-63
2022/04/30 00:51:38;;;;;;;14.50;11.70;;;15.20;99.90;;;;;;5072011;28;20481;-64
2022/04/30 00:54:07;;;;;;;13.47;10.90;;;15.10;99.90;;;;;;5072449;28;20445;-64
2022/04/30 00:56:35;;;;;;;14.10;11.50;;;15.10;99.90;;;;;;5072303;28;21155;-63
2022/04/30 00:59:06;;;;;;;14.80;10.77;;;15.10;99.90;;;;;;5072336;28;20473;-63
2022/04/30 01:01:34;;;;;;;14.10;11.07;;;15.20;99.90;;;;;;5072481;28;20487;-63
2022/04/30 01:04:03;;;;;;;14.33;11.47;;;15.40;99.90;;;;;;5072409;28;20452;-64
2022/04/30 01:06:48;;;;;;;14.07;11.03;;;15.40;99.90;;;;;;5072236;28;20789;-64
2022/04/30 01:09:15;;;;;;;14.27;11.20;;;15.30;99.90;;;;;;5071821;28;20497;-64
2022/04/30 01:11:43;;;;;;;13.30;11.17;;;15.20;99.90;;;;;;5072383;28;20453;-63
2022/04/30 01:14:12;;;;;;;13.83;11.00;;;14.90;99.90;;;;;;5072386;28;20480;-64
2022/04/30 01:16:39;;;;;;;13.57;11.00;;;15.00;99.90;;;;;;5072081;28;20468;-63
2022/04/30 01:19:08;;;;;;;15.33;11.67;;;15.20;99.90;;;;;;5071811;28;20480;-63
2022/04/30 01:21:36;;;;;;;11.50;9.90;;;15.10;99.90;;;;;;5071778;28;20445;-63
2022/04/30 01:24:06;;;;;;;12.90;10.37;;;15.10;99.90;;;;;;5071998;28;20816;-63
2022/04/30 01:26:33;;;;;;;14.00;10.70;;;15.20;99.90;;;;;;5071857;28;20452;-63
2022/04/30 01:29:00;;;;;;;15.30;11.40;;;15.00;99.90;;;;;;5071820;28;20472;-64
2022/04/30 01:39:42;;;;;;;13.60;11.63;;;15.00;99.90;;;;;;5071562;28;20494;-64
2022/04/30 01:42:12;;;;;;;12.00;9.80;;;15.00;99.90;;;;;;5071302;28;20934;-64
2022/04/30 01:44:40;;;;;;;17.00;11.73;;;15.00;99.90;;;;;;5071390;28;20506;-63
2022/04/30 01:47:08;;;;;;;12.20;10.70;;;15.10;99.90;;;;;;5071403;28;20460;-63
2022/04/30 01:49:35;;;;;;;12.50;10.90;;;14.90;99.90;;;;;;5071514;28;20456;-64
2022/04/30 01:52:07;;;;;;;19.03;10.73;;;14.60;99.90;;;;;;5070969;28;20546;-64
2022/04/30 01:54:34;;;;;;;12.97;10.90;;;14.60;99.90;;;;;;5071464;28;20870;-64
2022/04/30 01:57:04;;;;;;;12.30;10.10;;;14.70;99.90;;;;;;5071211;28;20455;-64
2022/04/30 01:59:32;;;;;;;12.13;10.20;;;14.70;99.90;;;;;;5071181;28;20912;-64
2022/04/30 02:02:00;;;;;;;12.70;10.27;;;14.70;99.90;;;;;;5071181;28;20445;-64
2022/04/30 02:04:29;;;;;;;12.43;10.60;;;14.90;99.90;;;;;;5071289;28;21092;-63
2022/04/30 02:06:59;;;;;;;12.80;10.77;;;15.10;99.90;;;;;;5071217;28;20515;-65
2022/04/30 02:09:28;;;;;;;12.53;9.90;;;15.10;99.90;;;;;;5070915;28;20512;-64
2022/04/30 02:11:58;;;;;;;12.10;10.13;;;15.20;99.90;;;;;;5070623;28;20480;-64
2022/04/30 02:14:30;;;;;;;11.73;10.33;;;15.10;99.90;;;;;;5071073;28;20560;-64
2022/04/30 02:16:58;;;;;;;12.30;10.73;;;14.80;99.90;;;;;;5070965;28;20483;-64
2022/04/30 02:19:28;;;;;;;13.27;10.70;;;14.60;99.90;;;;;;5070284;28;20496;-63
2022/04/30 02:21:57;;;;;;;11.80;9.53;;;14.70;99.90;;;;;;5070471;28;20922;-63
2022/04/30 02:24:26;;;;;;;12.27;9.00;;;14.90;99.90;;;;;;5070698;28;20457;-63
2022/04/30 02:26:53;;;;;;;14.17;10.30;;;15.00;99.90;;;;;;5070836;28;20445;-63
2022/04/30 02:29:20;;;;;;;13.67;11.80;;;15.10;99.90;;;;;;5070592;28;20465;-64
2022/04/30 02:31:49;;;;;;;13.33;11.40;;;15.10;99.90;;;;;;5070749;28;20453;-64
2022/04/30 02:34:16;;;;;;;12.10;10.43;;;15.10;99.90;;;;;;5070502;28;20457;-63
2022/04/30 02:36:43;;;;;;;14.10;10.63;;;15.10;99.90;;;;;;5070299;28;20949;-63
2022/04/30 02:39:10;;;;;;;14.20;11.30;;;14.80;99.90;;;;;;5070423;28;20469;-64
2022/04/30 02:41:37;;;;;;;15.53;11.67;;;14.60;99.90;;;;;;5070296;28;21005;-63
2022/04/30 02:44:05;;;;;;;13.40;11.57;;;14.70;99.90;;;;;;5070502;28;20456;-64
2022/04/30 02:46:32;;;;;;;11.97;9.93;;;14.80;99.90;;;;;;5070111;28;20938;-64
2022/04/30 02:49:01;;;;;;;13.40;11.03;;;14.60;99.90;;;;;;5070152;28;20522;-64
2022/04/30 02:51:28;;;;;;;16.00;11.00;;;14.60;99.90;;;;;;5069362;28;20500;-64
2022/04/30 02:53:55;;;;;;;13.50;10.60;;;14.70;99.90;;;;;;5070322;28;20452;-71
2022/04/30 02:56:22;;;;;;;14.37;10.30;;;14.80;99.90;;;;;;5070144;28;21111;-72
2022/04/30 03:01:33;;;;;;;13.47;9.30;;;15.00;99.90;;;;;;5070145;28;20484;-71
2022/04/30 03:04:03;;;;;;;12.60;10.23;;;15.00;99.90;;;;;;5070132;28;20560;-70
2022/04/30 03:06:33;;;;;;;16.87;12.20;;;15.00;99.90;;;;;;5069855;28;20541;-73
2022/04/30 03:09:00;;;;;;;15.50;10.80;;;15.10;99.90;;;;;;5069347;28;20477;-73
2022/04/30 03:11:27;;;;;;;14.33;12.30;;;15.00;99.90;;;;;;5069677;28;20777;-74
2022/04/30 03:13:54;;;;;;;20.00;11.60;;;14.90;99.90;;;;;;5069449;28;20458;-73
2022/04/30 03:21:54;;;;;;;15.30;11.97;;;14.80;99.90;;;;;;5069489;28;20436;-70
2022/04/30 03:24:21;;;;;;;17.10;11.57;;;14.80;99.90;;;;;;5069462;28;20441;-71
2022/04/30 03:26:49;;;;;;;14.50;11.23;;;14.80;99.90;;;;;;5069680;28;20472;-70
2022/04/30 03:29:18;;;;;;;15.90;12.07;;;14.70;99.90;;;;;;5069611;28;20469;-69
2022/04/30 03:31:45;;;;;;;14.40;11.47;;;14.80;99.90;;;;;;5069624;28;20453;-71
2022/04/30 03:34:15;;;;;;;14.20;11.70;;;14.70;99.90;;;;;;5069760;28;20463;-70
2022/04/30 03:36:43;;;;;;;15.73;12.70;;;14.60;99.90;;;;;;5069616;28;20454;-70
2022/04/30 03:39:10;;;;;;;13.73;11.13;;;14.40;99.90;;;;;;5069296;28;21022;-73
2022/04/30 03:41:37;;;;;;;14.67;11.73;;;14.30;99.90;;;;;;5069365;28;20485;-73
2022/04/30 03:44:07;;;;;;;15.87;12.90;;;14.40;99.90;;;;;;5069441;28;20449;-69
2022/04/30 03:46:34;;;;;;;18.20;12.90;;;14.30;99.90;;;;;;5069473;28;20460;-74
2022/04/30 03:49:03;;;;;;;15.23;13.37;;;14.40;99.90;;;;;;5069702;28;20481;-74
2022/04/30 03:51:31;;;;;;;14.43;12.47;;;14.50;99.90;;;;;;5069102;28;20480;-72
2022/04/30 03:53:59;;;;;;;16.50;13.93;;;14.50;99.90;;;;;;5069463;28;20448;-73
2022/04/30 03:56:26;;;;;;;14.97;11.70;;;14.40;99.90;;;;;;5069558;28;20451;-72
2022/04/30 03:58:53;;;;;;;16.07;12.30;;;14.40;99.90;;;;;;5069514;28;20492;-69
2022/04/30 04:01:21;;;;;;;16.60;13.60;;;14.30;99.90;;;;;;5069520;28;20549;-70
2022/04/30 04:03:50;;;;;;;14.23;11.70;;;14.30;99.90;;;;;;5071207;28;20456;-71
2022/04/30 04:06:18;;;;;;;16.50;13.70;;;14.30;99.90;;;;;;5073129;28;20510;-71
2022/04/30 04:08:50;;;;;;;15.30;12.97;;;14.40;99.90;;;;;;5073046;28;20468;-71
2022/04/30 04:11:18;;;;;;;16.17;12.43;;;14.50;99.90;;;;;;5073215;28;20529;-67
2022/04/30 04:19:30;;;;;;;16.27;13.33;;;14.50;99.90;;;;;;5010421;28;20514;-72
2022/04/30 04:21:57;;;;;;;21.43;12.60;;;14.60;99.90;;;;;;5045918;28;20492;-73
2022/04/30 04:27:10;;;;;;;17.57;14.70;;;14.70;99.90;;;;;;5073044;28;20440;-74
2022/04/30 04:29:37;;;;;;;16.10;12.53;;;14.70;99.90;;;;;;5072991;28;20464;-70
2022/04/30 04:32:05;;;;;;;15.97;13.57;;;14.60;99.90;;;;;;5072487;28;20448;-73
2022/04/30 04:34:32;;;;;;;16.67;14.77;;;14.60;99.90;;;;;;5072847;28;20456;-74
2022/04/30 04:36:59;;;;;;;17.10;13.90;;;14.60;99.90;;;;;;5072860;28;20452;-71
2022/04/30 04:39:27;;;;;;;19.57;14.07;;;14.60;99.90;;;;;;5073298;28;20476;-70
2022/04/30 04:41:54;;;;;;;16.40;14.00;;;14.50;99.90;;;;;;5072663;28;20522;-69
2022/04/30 04:44:22;;;;;;;18.50;13.10;;;14.50;99.90;;;;;;5072711;28;20453;-70
2022/04/30 04:46:50;;;;;;;16.40;13.10;;;14.60;99.90;;;;;;5072300;28;20495;-70
2022/04/30 04:49:17;;;;;;;18.30;13.00;;;14.60;99.90;;;;;;5072701;28;20920;-73
2022/04/30 04:51:44;;;;;;;18.47;13.63;;;14.50;99.90;;;;;;5072100;28;20484;-69
2022/04/30 04:54:11;;;;;;;18.63;12.73;;;14.40;99.90;;;;;;5072508;28;20453;-72
2022/04/30 04:56:42;;;;;;;15.97;12.10;;;14.50;99.90;;;;;;5072631;28;20503;-72
2022/04/30 04:59:10;;;;;;;17.80;12.83;;;14.80;99.90;;;;;;5072335;28;20476;-74
2022/04/30 05:01:40;;;;;;;16.30;12.87;;;14.90;99.90;;;;;;5072490;28;20515;-73
2022/04/30 05:04:08;;;;;;;15.67;12.37;;;15.00;99.90;;;;;;5072236;28;20448;-73
2022/04/30 05:06:36;;;;;;;19.13;14.20;;;15.10;99.90;;;;;;5071998;28;20812;-74
2022/04/30 05:09:03;;;;;;;18.80;14.70;;;15.10;99.90;;;;;;5072080;28;20473;-75
2022/04/30 05:11:30;;;;;;;18.77;14.80;;;15.20;99.90;;;;;;5072262;28;20821;-72
2022/04/30 05:13:58;;;;;;;17.03;15.23;;;15.30;99.90;;;;;;5071123;28;20449;-74
2022/04/30 05:16:25;;;;;;;15.27;13.20;;;15.60;99.90;;;;;;5072060;28;20456;-71
2022/04/30 05:18:52;;;;;;;16.60;13.50;;;15.90;99.90;;;;;;5071494;28;20479;-72
2022/04/30 05:21:19;;;;;;;17.60;14.93;;;16.20;99.90;;;;;;5071392;28;20996;-70
2022/04/30 05:23:46;;;;;;;16.30;13.00;;;16.40;99.90;;;;;;5071978;28;20457;-69
2022/04/30 05:26:14;;;;;;;14.97;12.13;;;16.60;99.90;;;;;;5072004;28;20482;-67
2022/04/30 05:28:41;;;;;;;19.17;14.57;;;16.60;99.90;;;;;;5071862;28;20878;-73
2022/04/30 05:31:09;;;;;;;17.37;14.67;;;16.50;99.90;;;;;;5071620;28;20464;-76
2022/04/30 05:33:36;;;;;;;16.63;14.20;;;16.80;99.90;;;;;;5071806;28;20602;-75
2022/04/30 05:36:04;;;;;;;18.57;13.70;;;17.10;99.90;;;;;;5071606;28;20449;-74
2022/04/30 05:38:31;;;;;;;16.50;12.87;;;17.30;99.90;;;;;;5071486;28;20472;-70
2022/04/30 05:40:58;;;;;;;14.77;11.40;;;17.40;99.90;;;;;;5071592;28;20485;-68
2022/04/30 05:43:25;;;;;;;15.00;13.07;;;17.40;99.90;;;;;;5071463;28;20468;-70
2022/04/30 05:45:52;;;;;;;17.20;13.27;;;17.60;99.90;;;;;;5071295;28;20455;-73
2022/04/30 05:48:21;;;;;;;14.57;12.73;;;17.70;99.90;;;;;;5071103;28;20473;-70
2022/04/30 05:50:48;;;;;;;14.40;12.20;;;17.50;99.90;;;;;;5071016;28;20489;-69
2022/04/30 05:53:15;;;;;;;14.40;12.67;;;17.70;99.90;;;;;;5071449;28;20445;-70
2022/04/30 05:55:42;;;;;;;18.00;13.20;;;17.70;99.90;;;;;;5071602;28;20450;-67
2022/04/30 05:58:09;;;;;;;14.10;12.40;;;17.70;99.90;;;;;;5071373;28;20481;-73
2022/04/30 06:00:36;;;;;;;17.47;13.13;;;17.90;99.90;;;;;;5071129;28;20520;-67
2022/04/30 06:03:03;;;;;;;13.57;11.50;;;17.80;99.90;;;;;;5071182;28;20459;-67
2022/04/30 06:05:31;;;;;;;13.53;11.50;;;18.00;99.90;;;;;;5071193;28;20896;-71
2022/04/30 06:07:59;;;;;;;21.53;19.30;;;18.00;99.90;;;;;;5070781;28;20480;-69
2022/04/30 06:10:26;;;;;;;21.97;15.20;;;18.20;99.90;;;;;;5071082;28;20475;-70
2022/04/30 06:12:53;;;;;;;14.67;12.73;;;18.30;99.90;;;;;;5070589;28;20449;-70
2022/04/30 06:15:20;;;;;;;14.17;12.10;;;18.20;99.90;;;;;;5070855;28;20460;-70
2022/04/30 06:17:47;;;;;;;16.33;11.33;;;18.20;99.90;;;;;;5070750;28;20914;-71
2022/04/30 06:20:14;;;;;;;13.53;10.60;;;18.20;99.90;;;;;;5070748;28;20457;-69
2022/04/30 06:22:43;;;;;;;14.53;11.50;;;18.40;99.90;;;;;;5070681;28;20516;-67
2022/04/30 06:25:11;;;;;;;11.83;10.57;;;18.50;99.90;;;;;;5070431;28;20449;-67
2022/04/30 06:27:39;;;;;;;15.10;12.57;;;18.50;99.90;;;;;;5070017;28;20966;-67
2022/04/30 06:30:08;;;;;;;14.77;12.30;;;18.20;99.90;;;;;;5070718;28;20453;-70
2022/04/30 06:32:36;;;;;;;14.30;12.80;;;18.00;99.90;;;;;;5070681;28;20488;-67
2022/04/30 06:35:03;;;;;;;14.80;11.77;;;18.00;99.90;;;;;;5070757;28;20456;-71
2022/04/30 06:37:30;;;;;;;14.27;11.60;;;18.10;99.90;;;;;;5070569;28;20468;-69
2022/04/30 06:39:59;;;;;;;12.23;10.20;;;18.30;99.90;;;;;;5070713;28;21144;-64
2022/04/30 06:42:26;;;;;;;10.60;9.33;;;18.40;99.90;;;;;;5070097;28;21021;-68
2022/04/30 06:44:54;;;;;;;11.53;10.13;;;18.30;99.90;;;;;;5070453;28;20503;-68
2022/04/30 06:47:21;;;;;;;11.13;9.50;;;18.40;99.90;;;;;;5070207;28;20461;-67
2022/04/30 06:49:50;;;;;;;11.60;10.10;;;18.30;99.90;;;;;;5070445;28;20815;-66
2022/04/30 06:52:18;;;;;;;21.13;11.47;;;18.30;99.90;;;;;;5070036;28;20481;-67
2022/04/30 06:57:33;;;;;;;11.30;10.10;;;18.60;99.90;;;;;;5069873;28;20828;-69
2022/04/30 07:00:39;;;;;;;14.10;10.53;;;18.90;99.90;;;;;;5070194;28;20812;-66
2022/04/30 07:02:47;;;;;;;10.00;8.80;;;18.70;99.90;;;;;;5069450;28;20487;-68
2022/04/30 07:05:14;;;;;;;12.83;9.97;;;18.90;99.90;;;;;;5069610;28;20511;-66
2022/04/30 07:07:41;;;;;;;14.60;9.83;;;18.90;99.90;;;;;;5069844;28;20476;-68
2022/04/30 07:10:08;;;;;;;10.80;9.20;;;19.10;99.90;;;;;;5070113;28;20452;-72
2022/04/30 07:12:37;;;;;;;10.53;9.33;;;19.30;99.90;;;;;;5069826;28;20449;-73
2022/04/30 07:15:05;;;;;;;13.80;11.03;;;19.60;99.90;;;;;;5069915;28;20456;-68
2022/04/30 07:17:32;;;;;;;14.90;10.23;;;19.80;99.90;;;;;;5069489;28;20477;-70
2022/04/30 07:19:59;;;;;;;11.97;9.50;;;20.00;99.90;;;;;;5069573;28;20453;-66
2022/04/30 07:22:26;;;;;;;13.87;10.20;;;20.30;99.90;;;;;;5069816;28;21066;-69
2022/04/30 07:24:55;;;;;;;10.80;9.30;;;20.40;99.90;;;;;;5069846;28;20460;-68
2022/04/30 07:27:22;;;;;;;11.43;9.90;;;20.60;99.90;;;;;;5069804;28;20453;-68
2022/04/30 07:29:50;;;;;;;11.90;9.30;;;20.60;99.90;;;;;;5069802;28;20453;-69
2022/04/30 07:32:17;;;;;;;12.27;9.93;;;20.80;99.90;;;;;;5069174;28;20799;-72
2022/04/30 07:34:44;;;;;;;14.80;10.27;;;20.70;99.00;;;;;;5069263;28;20453;-69
2022/04/30 07:37:12;;;;;;;13.33;10.60;;;20.80;98.70;;;;;;5069319;28;20842;-68
2022/04/30 07:39:39;;;;;;;12.00;10.80;;;21.00;98.90;;;;;;5069710;28;20530;-69
2022/04/30 07:42:06;;;;;;;11.87;10.60;;;21.00;97.30;;;;;;5069515;28;20510;-66
2022/04/30 07:44:33;;;;;;;12.60;10.83;;;20.80;97.40;;;;;;5069568;28;20445;-66
2022/04/30 07:47:02;;;;;;;12.43;10.00;;;20.70;97.60;;;;;;5069160;28;20807;-66
2022/04/30 07:49:30;;;;;;;11.13;10.00;;;20.60;97.60;;;;;;5068952;28;20487;-65
2022/04/30 07:51:58;;;;;;;12.80;11.03;;;20.80;97.80;;;;;;5068859;28;20491;-65
2022/04/30 07:54:25;;;;;;;13.07;9.07;;;21.10;97.80;;;;;;5069387;28;20456;-66
2022/04/30 07:56:53;;;;;;;10.30;8.30;;;21.20;96.70;;;;;;5069440;28;20510;-66
2022/04/30 07:59:21;;;;;;;12.63;9.80;;;21.40;96.20;;;;;;5069102;28;20563;-67
2022/04/30 08:01:49;;;;;;;9.53;8.53;;;21.60;95.20;;;;;;5069157;28;20536;-63
2022/04/30 08:04:17;;;;;;;10.37;8.70;;;21.60;94.40;;;;;;5069074;28;20452;-63
2022/04/30 08:06:44;;;;;;;10.40;8.90;;;21.80;93.40;;;;;;5069169;28;20457;-62
2022/04/30 08:09:12;;;;;;;10.63;8.37;;;21.80;93.30;;;;;;5069117;28;20980;-66
2022/04/30 08:11:40;;;;;;;13.30;10.40;;;21.90;94.00;;;;;;5069357;28;20449;-62
2022/04/30 08:14:07;;;;;;;14.70;10.20;;;21.70;93.20;;;;;;5069199;28;21122;-61
2022/04/30 08:16:34;;;;;;;11.40;10.03;;;21.80;93.60;;;;;;5069005;28;21016;-63
2022/04/30 08:19:01;;;;;;;11.20;9.50;;;21.80;93.50;;;;;;5069030;28;21065;-63
2022/04/30 08:21:29;;;;;;;11.20;8.50;;;21.60;92.90;;;;;;5069269;28;20484;-60
2022/04/30 08:23:56;;;;;;;12.23;9.77;;;21.50;93.50;;;;;;5069082;28;20858;-63
2022/04/30 08:26:23;;;;;;;10.23;8.40;;;21.40;93.20;;;;;;5068632;28;20471;-63
2022/04/30 08:28:50;;;;;;;10.70;8.83;;;21.20;93.20;;;;;;5068553;28;20480;-62
2022/04/30 08:31:18;;;;;;;9.93;8.90;;;21.20;94.20;;;;;;5068840;28;20464;-62
2022/04/30 08:33:45;;;;;;;9.60;8.60;;;21.30;93.80;;;;;;5069094;28;20896;-62
2022/04/30 08:36:14;;;;;;;9.90;8.90;;;21.40;93.20;;;;;;5069095;28;20453;-69
2022/04/30 08:38:42;;;;;;;13.23;10.43;;;21.50;93.20;;;;;;5069153;28;20601;-70
2022/04/30 08:41:10;;;;;;;11.47;10.13;;;21.60;92.70;;;;;;5069125;28;20472;-68
2022/04/30 08:43:39;;;;;;;10.20;9.10;;;21.70;92.20;;;;;;5068770;28;20993;-69
2022/04/30 08:46:06;;;;;;;11.60;8.23;;;21.50;92.20;;;;;;5068884;28;20456;-67
2022/04/30 08:48:34;;;;;;;9.23;7.40;;;21.50;92.90;;;;;;5068862;28;20472;-67
2022/04/30 08:51:02;;;;;;;10.00;7.50;;;21.40;93.30;;;;;;5070870;28;20527;-69
2022/04/30 08:53:29;;;;;;;9.77;6.83;;;21.30;93.40;;;;;;5072259;28;20543;-68
2022/04/30 08:55:58;;;;;;;8.30;5.50;;;21.30;93.70;;;;;;5072326;28;20456;-68
2022/04/30 08:58:25;;;;;;;8.30;6.20;;;21.40;93.50;;;;;;5072272;28;21021;-68
2022/04/30 09:00:52;;;;;;;8.73;5.80;;;21.20;93.30;;;;;;5072335;28;20457;-69
2022/04/30 09:03:20;;;;;;;9.50;6.30;;;21.20;93.30;;;;;;5072526;28;20492;-69
2022/04/30 09:05:49;;;;;;;8.00;6.50;;;21.20;93.30;;;;;;5072399;28;20467;-67
2022/04/30 09:08:17;;;;;;;7.53;5.40;;;21.20;93.40;;;;;;5072219;28;20508;-70
2022/04/30 09:10:44;;;;;;;8.23;5.13;;;21.30;93.50;;;;;;5072160;28;20568;-70
2022/04/30 09:13:14;;;;;;;9.90;7.23;;;21.60;93.70;;;;;;5071995;28;20540;-67
2022/04/30 09:15:44;;;;;;;8.60;6.27;;;22.00;93.20;;;;;;5072148;28;20929;-71
2022/04/30 09:18:12;;;;;;;8.73;5.27;;;22.10;92.40;;;;;;5072047;28;20563;-72
2022/04/30 09:20:44;;;;;;;7.80;5.33;;;22.30;91.70;;;;;;5071978;28;20532;-71
2022/04/30 09:23:11;;;;;;;9.30;6.77;;;22.50;91.00;;;;;;5071974;28;20935;-73
2022/04/30 09:25:50;;;;;;;8.63;5.60;;;22.50;90.60;;;;;;5072208;28;20483;-72
2022/04/30 09:28:26;;;;;;;8.00;5.97;;;22.70;90.00;;;;;;5071986;28;20473;-74
2022/04/30 09:31:03;;;;;;;7.30;5.17;;;22.80;88.70;;;;;;5073122;28;20460;-75
2022/04/30 09:33:30;;;;;;;8.37;5.03;;;22.90;87.30;;;;;;5071845;28;20449;-73
2022/04/30 09:38:48;;;;;;;5.80;4.30;;;23.00;86.40;;;;;;5071965;28;20457;-75
2022/04/30 09:41:15;;;;;;;6.60;3.90;;;23.20;84.30;;;;;;5071768;28;20568;-70
2022/04/30 09:43:44;;;;;;;6.90;4.50;;;23.30;83.80;;;;;;5070874;28;20521;-69
2022/04/30 09:46:11;;;;;;;6.30;3.67;;;23.20;81.90;;;;;;5071317;28;20453;-64
2022/04/30 09:54:07;;;;;;;11.33;4.10;;;23.40;79.30;;;;;;5071294;28;20478;-65
2022/04/30 09:56:36;;;;;;;6.37;4.20;;;23.60;78.80;;;;;;5071100;28;20460;-66
2022/04/30 09:59:06;;;;;;;5.93;3.93;;;23.70;77.60;;;;;;5071373;28;20473;-65
2022/04/30 10:01:35;;;;;;;5.97;3.93;;;23.60;77.20;;;;;;5071266;28;20618;-64
2022/04/30 10:04:08;;;;;;;5.50;3.40;;;23.80;77.80;;;;;;5070875;28;20514;-66
2022/04/30 10:06:36;;;;;;;5.77;3.87;;;23.90;76.50;;;;;;5070921;28;20557;-63
2022/04/30 10:09:08;;;;;;;5.87;3.80;;;24.10;74.50;;;;;;5070985;28;21103;-64
2022/04/30 10:11:42;;;;;;;5.83;4.03;;;24.10;74.20;;;;;;5070566;28;21016;-64
2022/04/30 10:14:22;;;;;;;7.03;4.23;;;24.20;72.20;;;;;;5071097;28;20445;-64
2022/04/30 10:17:10;;;;;;;5.73;4.13;;;24.20;71.30;;;;;;5071134;28;20846;-65
2022/04/30 10:19:38;;;;;;;6.10;4.20;;;24.30;71.50;;;;;;5070691;28;20449;-64
2022/04/30 10:22:13;;;;;;;5.87;3.93;;;24.50;72.70;;;;;;5070697;28;20984;-66
2022/04/30 10:24:45;;;;;;;6.73;4.33;;;24.40;71.40;;;;;;5070867;28;20451;-64
2022/04/30 10:27:13;;;;;;;6.10;4.50;;;24.70;70.90;;;;;;5070262;28;20452;-65
2022/04/30 10:29:55;;;;;;;7.07;4.20;;;24.90;71.00;;;;;;5070640;28;20522;-64
2022/04/30 10:32:30;;;;;;;5.17;3.80;;;25.20;69.90;;;;;;5070575;28;20510;-65
2022/04/30 10:34:57;;;;;;;5.63;4.10;;;25.10;68.80;;;;;;5070762;28;20450;-65
2022/04/30 10:37:31;;;;;;;6.93;4.30;;;25.40;68.80;;;;;;5070639;28;20448;-65
2022/04/30 10:40:00;;;;;;;6.63;3.80;;;25.60;66.70;;;;;;5070444;28;20445;-65
2022/04/30 10:42:31;;;;;;;5.27;3.87;;;25.80;65.90;;;;;;5070252;28;20884;-63
2022/04/30 10:45:00;;;;;;;6.70;5.10;;;25.80;65.70;;;;;;5070381;28;20921;-64
2022/04/30 10:47:27;;;;;;;5.93;4.03;;;25.90;66.20;;;;;;5070431;28;20506;-64
2022/04/30 10:49:55;;;;;;;6.67;3.90;;;26.10;66.30;;;;;;5070078;28;20460;-67
2022/04/30 10:52:24;;;;;;;6.70;3.60;;;26.30;64.00;;;;;;5070271;28;20452;-65
2022/04/30 10:54:54;;;;;;;5.80;3.97;;;26.20;64.30;;;;;;5070247;28;20543;-63
2022/04/30 10:57:22;;;;;;;5.30;3.60;;;26.40;65.80;;;;;;5070042;28;20480;-63
2022/04/30 11:00:02;;;;;;;9.93;4.07;;;26.20;62.10;;;;;;5070190;28;20457;-63
2022/04/30 11:02:33;;;;;;;5.00;3.80;;;26.40;62.10;;;;;;5070014;28;20510;-70
2022/04/30 11:05:01;;;;;;;5.70;4.07;;;26.80;60.70;;;;;;5069830;28;20460;-68
2022/04/30 11:07:30;;;;;;;6.87;4.00;;;27.00;59.80;;;;;;5070097;28;20477;-70
2022/04/30 11:09:57;;;;;;;6.00;3.60;;;26.90;59.30;;;;;;5069558;28;20472;-69
2022/04/30 11:12:30;;;;;;;5.70;3.93;;;26.70;59.30;;;;;;5069645;28;20453;-67
2022/04/30 11:14:58;;;;;;;11.10;3.83;;;26.30;59.90;;;;;;5069944;28;20925;-69
2022/04/30 11:17:27;;;;;;;5.93;3.10;;;26.30;61.00;;;;;;5069584;28;20933;-70
2022/04/30 11:19:55;;;;;;;8.23;3.60;;;26.60;59.10;;;;;;5069699;28;20957;-70
2022/04/30 11:22:24;;;;;;;5.47;3.70;;;27.00;59.40;;;;;;5069869;28;20484;-68
2022/04/30 11:24:51;;;;;;;6.33;3.77;;;27.00;57.80;;;;;;5069971;28;20927;-63
2022/04/30 11:27:18;;;;;;;5.20;3.73;;;26.60;58.30;;;;;;5069361;28;20452;-64
2022/04/30 11:29:56;;;;;;;5.00;3.47;;;26.40;57.80;;;;;;5069543;28;20464;-70
2022/04/30 11:32:26;;;;;;;5.10;3.30;;;26.10;58.00;;;;;;5069272;28;20527;-68
2022/04/30 11:34:55;;;;;;;6.03;3.37;;;26.20;58.40;;;;;;5069300;28;20526;-69
2022/04/30 11:37:23;;;;;;;5.77;3.20;;;26.10;58.60;;;;;;5069572;28;20464;-69
2022/04/30 11:39:50;;;;;;;8.40;3.77;;;26.10;58.60;;;;;;5069563;28;20445;-68
2022/04/30 11:42:17;;;;;;;5.77;3.70;;;25.90;58.80;;;;;;5069182;28;20441;-68
2022/04/30 11:44:45;;;;;;;8.13;3.47;;;25.70;59.30;;;;;;5069391;28;20452;-68
2022/04/30 11:47:12;;;;;;;4.80;2.90;;;25.40;60.50;;;;;;5069283;28;20492;-69
2022/04/30 11:49:40;;;;;;;6.23;3.50;;;25.30;61.00;;;;;;5069199;28;20449;-69
2022/04/30 11:52:09;;;;;;;5.43;3.30;;;25.20;60.50;;;;;;5069270;28;20484;-71
2022/04/30 11:54:38;;;;;;;4.80;2.70;;;24.80;61.20;;;;;;5068880;28;20821;-67
2022/04/30 11:57:06;;;;;;;5.00;2.70;;;24.70;60.60;;;;;;5069069;28;20522;-65
2022/04/30 11:59:35;;;;;;;8.23;3.43;;;24.50;61.60;;;;;;5069174;28;21014;-68
2022/04/30 12:02:04;;;;;;;6.40;3.80;;;24.40;62.50;;;;;;5069322;28;20542;-67
2022/04/30 12:04:34;;;;;;;5.47;3.80;;;24.10;62.60;;;;;;5069017;28;20488;-65
2022/04/30 12:07:03;;;;;;;5.13;3.43;;;24.00;62.50;;;;;;5068707;28;20508;-68
2022/04/30 12:09:35;;;;;;;5.00;2.90;;;24.00;62.20;;;;;;5068777;28;20449;-67
2022/04/30 12:12:03;;;;;;;6.00;3.60;;;24.20;62.50;;;;;;5068845;28;20492;-66
2022/04/30 12:14:30;;;;;;;5.27;3.20;;;24.40;63.50;;;;;;5069169;28;20460;-71
2022/04/30 12:16:57;;;;;;;5.80;3.40;;;24.50;67.00;;;;;;5068832;28;20480;-66
2022/04/30 12:25:06;;;;;;;6.60;3.70;;;23.90;78.00;;;;;;5071609;28;20456;-66
2022/04/30 12:27:34;;;;;;;7.80;4.30;;;23.40;75.90;;;;;;5073020;28;20452;-66
2022/04/30 12:30:14;;;;;;;6.93;4.07;;;23.00;81.30;;;;;;5073052;28;20444;-65
2022/04/30 12:32:48;;;;;;;18.13;4.50;;;22.80;80.90;;;;;;5072736;28;20523;-66
2022/04/30 12:35:16;;;;;;;7.10;3.63;;;22.30;86.80;;;;;;5072864;28;20444;-65
2022/04/30 12:37:43;;;;;;;5.43;3.90;;;22.00;86.20;;;;;;5072788;28;20477;-65
2022/04/30 12:40:13;;;;;;;6.83;3.60;;;21.80;90.80;;;;;;5072773;28;20956;-66
2022/04/30 12:42:41;;;;;;;6.43;4.67;;;22.00;96.70;;;;;;5072637;28;20447;-66
2022/04/30 12:45:09;;;;;;;4.83;2.80;;;22.40;99.90;;;;;;5072468;28;20472;-65
2022/04/30 12:47:36;;;;;;;4.80;3.20;;;22.70;93.10;;;;;;5072362;28;20504;-66
2022/04/30 12:50:03;;;;;;;5.80;4.03;;;22.90;94.70;;;;;;5072217;28;20467;-65
2022/04/30 12:52:30;;;;;;;7.63;4.77;;;23.00;98.80;;;;;;5072650;28;20453;-73
2022/04/30 12:54:58;;;;;;;7.20;4.20;;;22.50;95.70;;;;;;5072612;28;20456;-68
2022/04/30 12:57:26;;;;;;;6.87;4.30;;;21.70;96.30;;;;;;5072078;28;20453;-66
2022/04/30 12:59:53;;;;;;;6.27;4.53;;;21.50;99.50;;;;;;5072267;28;20460;-65
2022/04/30 13:02:23;;;;;;;7.60;4.77;;;21.10;99.90;;;;;;5072453;28;20854;-67
2022/04/30 13:04:51;;;;;;;6.53;5.27;;;21.10;99.90;;;;;;5072355;28;20488;-66
2022/04/30 13:07:18;;;;;;;7.63;5.03;;;20.60;99.90;;;;;;5072404;28;20543;-65
2022/04/30 13:15:16;;;;;;;6.27;3.87;;;19.60;99.90;;;;;;5072217;28;20443;-64
2022/04/30 13:17:43;;;;;;;8.80;4.03;;;19.20;99.90;;;;;;5072242;28;20515;-64
2022/04/30 13:20:11;;;;;;;6.63;4.00;;;19.30;99.90;;;;;;5071638;28;20452;-63
2022/04/30 13:22:39;;;;;;;7.27;4.20;;;19.40;99.90;;;;;;5071683;28;20489;-63
2022/04/30 13:25:07;;;;;;;6.07;4.10;;;19.40;99.90;;;;;;5071518;28;20456;-63
2022/04/30 13:27:35;;;;;;;5.90;4.17;;;19.50;99.90;;;;;;5071819;28;20996;-61
2022/04/30 13:30:02;;;;;;;6.43;4.43;;;19.90;99.90;;;;;;5071890;28;20911;-62